createdAt,value
2022-08-12T00:00:07.514Z,13.90
2022-08-12T00:02:54.285Z,9.90
2022-08-12T00:05:57.107Z,5.82
2022-08-12T00:08:50.599Z,10.88
2022-08-12T00:11:35.900Z,8.68
2022-08-12T00:14:21.068Z,9.60
2022-08-12T00:17:07.419Z,7.95
2022-08-12T00:19:52.781Z,7.82
2022-08-12T00:22:39.664Z,8.05
2022-08-12T00:26:05.661Z,8.20
2022-08-12T00:28:32.752Z,6.95
2022-08-12T00:31:18.364Z,10.25
2022-08-12T00:34:03.568Z,8.02
2022-08-12T00:36:50.817Z,6.35
2022-08-12T00:39:37.006Z,9.65
2022-08-12T00:42:13.569Z,7.50
2022-08-12T00:44:43.319Z,7.05
2022-08-12T00:47:25.183Z,11.90
2022-08-12T00:49:55.312Z,8.68
2022-08-12T00:52:23.144Z,8.00
2022-08-12T00:54:57.134Z,5.72
2022-08-12T00:57:28.964Z,10.02
2022-08-12T01:00:01.798Z,8.45
2022-08-12T01:02:34.261Z,7.35
2022-08-12T01:05:23.655Z,6.60
2022-08-12T01:08:09.516Z,8.23
2022-08-12T01:10:57.850Z,7.97
2022-08-12T01:13:25.988Z,9.77
2022-08-12T01:15:55.394Z,9.15
2022-08-12T01:18:24.674Z,9.82
2022-08-12T01:21:03.737Z,8.98
2022-08-12T01:23:43.409Z,8.80
2022-08-12T01:26:16.616Z,7.43
2022-08-12T01:28:46.579Z,7.78
2022-08-12T01:31:16.481Z,7.22
2022-08-12T01:33:58.151Z,6.85
2022-08-12T01:36:27.872Z,8.10
2022-08-12T01:39:01.958Z,7.17
2022-08-12T01:41:33.442Z,11.00
2022-08-12T01:44:01.706Z,8.48
2022-08-12T01:46:38.501Z,8.40
2022-08-12T01:49:14.575Z,6.63
2022-08-12T01:52:20.636Z,6.43
2022-08-12T01:54:44.524Z,7.55
2022-08-12T01:57:59.733Z,6.63
2022-08-12T02:00:13.809Z,6.85
2022-08-12T02:02:47.817Z,6.68
2022-08-12T02:05:35.562Z,6.95
2022-08-12T02:08:52.472Z,7.57
2022-08-12T02:11:31.784Z,7.18
2022-08-12T02:14:05.500Z,7.70
2022-08-12T02:16:58.048Z,7.65
2022-08-12T02:20:01.783Z,7.00
2022-08-12T02:22:34.765Z,8.68
2022-08-12T02:25:06.912Z,6.68
2022-08-12T02:27:55.246Z,6.25
2022-08-12T02:30:25.534Z,6.47
2022-08-12T02:33:04.578Z,6.72
2022-08-12T02:35:34.030Z,7.13
2022-08-12T02:38:04.328Z,7.03
2022-08-12T02:40:31.297Z,6.93
2022-08-12T02:43:30.179Z,7.13
2022-08-12T02:46:00.348Z,7.25
2022-08-12T02:48:39.673Z,6.63
2022-08-12T02:51:09.879Z,6.63
2022-08-12T02:53:37.885Z,6.22
2022-08-12T02:56:06.497Z,7.25
2022-08-12T02:58:35.757Z,6.65
2022-08-12T03:01:11.738Z,7.20
2022-08-12T03:03:40.374Z,6.75
2022-08-12T03:06:12.640Z,5.97
2022-08-12T03:08:42.271Z,6.63
2022-08-12T03:11:41.637Z,7.47
2022-08-12T03:14:14.372Z,6.78
2022-08-12T03:16:42.107Z,6.70
2022-08-12T03:19:08.945Z,7.28
2022-08-12T03:21:52.947Z,6.72
2022-08-12T03:24:27.396Z,6.50
2022-08-12T03:26:55.256Z,6.43
2022-08-12T03:29:32.745Z,7.05
2022-08-12T03:32:35.762Z,6.03
2022-08-12T03:35:07.790Z,7.97
2022-08-12T03:37:37.279Z,5.57
2022-08-12T03:40:04.975Z,5.65
2022-08-12T03:42:41.154Z,4.75
2022-08-12T03:45:51.997Z,5.28
2022-08-12T03:48:38.538Z,5.10
2022-08-12T03:51:24.271Z,4.65
2022-08-12T03:54:11.591Z,3.95
2022-08-12T03:56:58.203Z,4.60
2022-08-12T03:59:44.071Z,6.60
2022-08-12T04:02:15.572Z,5.32
2022-08-12T04:04:45.442Z,4.28
2022-08-12T04:07:14.034Z,6.18
2022-08-12T04:09:44.641Z,4.63
2022-08-12T04:12:32.906Z,4.68
2022-08-12T04:15:00.995Z,4.10
2022-08-12T04:17:28.604Z,4.95
2022-08-12T04:19:57.759Z,4.00
2022-08-12T04:22:29.716Z,4.50
2022-08-12T04:25:00.960Z,3.47
2022-08-12T04:27:30.204Z,3.72
2022-08-12T04:30:17.722Z,8.02
2022-08-12T04:32:45.898Z,3.72
2022-08-12T04:35:12.802Z,5.00
2022-08-12T04:37:58.061Z,4.70
2022-08-12T04:40:33.023Z,3.65
2022-08-12T04:43:03.516Z,3.30
2022-08-12T04:45:37.574Z,5.35
2022-08-12T04:48:05.138Z,3.28
2022-08-12T04:50:35.203Z,3.65
2022-08-12T04:53:08.706Z,2.70
2022-08-12T04:55:38.491Z,7.15
2022-08-12T04:58:06.567Z,5.32
2022-08-12T05:00:33.593Z,5.03
2022-08-12T05:03:00.553Z,4.93
2022-08-12T05:05:30.394Z,5.20
2022-08-12T05:08:00.603Z,5.45
2022-08-12T05:10:33.776Z,4.25
2022-08-12T05:13:07.159Z,4.47
2022-08-12T05:15:36.026Z,4.47
2022-08-12T05:18:03.607Z,3.67
2022-08-12T05:20:48.382Z,6.23
2022-08-12T05:23:17.520Z,4.55
2022-08-12T05:25:57.116Z,5.72
2022-08-12T05:28:26.973Z,4.05
2022-08-12T05:30:58.440Z,4.78
2022-08-12T05:33:33.105Z,5.95
2022-08-12T05:35:59.792Z,4.80
2022-08-12T05:38:44.910Z,2.70
2022-08-12T05:41:20.306Z,5.22
2022-08-12T05:43:58.703Z,4.05
2022-08-12T05:46:31.722Z,3.92
2022-08-12T05:49:00.846Z,3.83
2022-08-12T05:51:40.337Z,3.47
2022-08-12T05:54:08.939Z,4.30
2022-08-12T05:56:36.234Z,3.22
2022-08-12T05:59:08.666Z,1.80
2022-08-12T06:02:11.828Z,3.83
2022-08-12T06:04:22.950Z,6.95
2022-08-12T06:06:53.132Z,2.00
2022-08-12T06:09:19.836Z,4.55
2022-08-12T06:12:04.950Z,7.38
2022-08-12T06:14:36.959Z,3.05
2022-08-12T06:17:05.311Z,4.80
2022-08-12T06:20:26.210Z,5.35
2022-08-12T06:22:19.171Z,6.75
2022-08-12T06:24:46.491Z,1.70
2022-08-12T06:27:17.677Z,1.88
2022-08-12T06:30:09.990Z,2.60
2022-08-12T06:32:31.242Z,3.53
2022-08-12T06:35:25.658Z,6.07
2022-08-12T06:37:50.353Z,1.48
2022-08-12T06:40:41.846Z,2.13
2022-08-12T06:43:12.099Z,2.05
2022-08-12T06:45:46.725Z,2.72
2022-08-12T06:48:14.469Z,2.08
2022-08-12T06:50:44.813Z,4.35
2022-08-12T06:53:11.742Z,7.90
2022-08-12T06:55:57.865Z,4.07
2022-08-12T06:58:26.457Z,6.13
2022-08-12T07:00:54.601Z,4.03
2022-08-12T07:03:25.673Z,4.33
2022-08-12T07:05:52.491Z,4.43
2022-08-12T07:08:19.122Z,3.35
2022-08-12T07:10:59.520Z,5.25
2022-08-12T07:13:28.495Z,3.93
2022-08-12T07:15:57.030Z,5.27
2022-08-12T07:18:28.490Z,3.58
2022-08-12T07:20:55.160Z,3.33
2022-08-12T07:23:24.405Z,4.00
2022-08-12T07:25:53.099Z,5.70
2022-08-12T07:28:29.288Z,3.55
2022-08-12T07:30:57.567Z,3.70
2022-08-12T07:33:29.440Z,6.47
2022-08-12T07:35:58.816Z,3.80
2022-08-12T07:38:33.446Z,4.80
2022-08-12T07:41:03.327Z,2.90
2022-08-12T07:43:31.830Z,4.68
2022-08-12T07:46:00.447Z,4.57
2022-08-12T07:48:28.098Z,7.50
2022-08-12T07:50:55.105Z,6.70
2022-08-12T07:53:21.865Z,3.83
2022-08-12T07:55:48.540Z,3.28
2022-08-12T07:58:15.194Z,4.65
2022-08-12T08:00:42.445Z,5.05
2022-08-12T08:03:09.154Z,4.07
2022-08-12T08:05:49.538Z,4.93
2022-08-12T08:08:22.707Z,3.93
2022-08-12T08:10:51.565Z,4.72
2022-08-12T08:13:19.054Z,3.20
2022-08-12T08:16:02.366Z,2.88
2022-08-12T08:18:31.294Z,3.15
2022-08-12T08:20:57.919Z,4.90
2022-08-12T08:23:56.329Z,2.33
2022-08-12T08:26:26.937Z,3.05
2022-08-12T08:28:53.901Z,2.47
2022-08-12T08:31:21.489Z,4.28
2022-08-12T08:34:04.761Z,3.83
2022-08-12T08:36:34.861Z,2.40
2022-08-12T08:39:04.360Z,1.60
2022-08-12T08:42:16.578Z,3.08
2022-08-12T08:44:41.247Z,1.77
2022-08-12T08:47:09.872Z,3.13
2022-08-12T08:49:37.788Z,1.90
2022-08-12T08:52:06.592Z,3.28
2022-08-12T08:54:37.968Z,2.08
2022-08-12T08:57:07.941Z,1.70
2022-08-12T08:59:35.780Z,2.60
2022-08-12T09:02:02.638Z,1.90
2022-08-12T09:05:11.944Z,1.70
2022-08-12T09:07:51.728Z,4.10
2022-08-12T09:10:09.219Z,2.92
2022-08-12T09:13:23.315Z,2.95
2022-08-12T09:15:56.025Z,3.40
2022-08-12T09:18:26.693Z,2.85
2022-08-12T09:21:02.150Z,1.92
2022-08-12T09:23:57.297Z,3.20
2022-08-12T09:26:19.062Z,4.18
2022-08-12T09:32:03.759Z,3.60
2022-08-12T09:34:29.178Z,3.20
2022-08-12T09:36:58.230Z,2.10
2022-08-12T09:40:04.394Z,3.08
2022-08-12T09:42:42.923Z,2.80
2022-08-12T09:45:23.415Z,3.13
2022-08-12T09:47:59.142Z,3.90
2022-08-12T09:50:27.437Z,4.15
2022-08-12T09:53:14.992Z,6.03
2022-08-12T09:56:40.208Z,4.53
2022-08-12T09:58:57.729Z,3.60
2022-08-12T10:01:24.440Z,3.67
2022-08-12T10:04:03.190Z,4.00
2022-08-12T10:06:36.184Z,3.15
2022-08-12T10:09:08.406Z,3.35
2022-08-12T10:12:10.562Z,3.75
2022-08-12T10:14:39.875Z,2.50
2022-08-12T10:17:23.457Z,3.13
2022-08-12T10:19:52.594Z,3.50
2022-08-12T10:22:39.692Z,3.70
2022-08-12T10:26:34.055Z,2.42
2022-08-12T10:28:34.959Z,2.50
2022-08-12T10:31:04.848Z,4.20
2022-08-12T10:33:33.390Z,3.13
2022-08-12T10:36:02.062Z,2.42
2022-08-12T10:38:39.051Z,3.90
2022-08-12T10:41:58.290Z,2.05
2022-08-12T10:44:17.516Z,3.15
2022-08-12T10:46:49.295Z,5.35
2022-08-12T10:50:05.050Z,4.57
2022-08-12T10:52:34.856Z,7.83
2022-08-12T10:54:55.921Z,2.60
2022-08-12T10:58:14.745Z,2.60
2022-08-12T11:00:33.739Z,4.03
2022-08-12T11:04:23.903Z,2.20
2022-08-12T11:07:06.727Z,3.10
2022-08-12T11:08:43.379Z,2.92
2022-08-12T11:11:17.618Z,2.00
2022-08-12T11:13:48.872Z,3.65
2022-08-12T11:16:23.305Z,2.53
2022-08-12T11:18:54.886Z,4.03
2022-08-12T11:21:22.655Z,4.22
2022-08-12T11:24:30.057Z,2.97
2022-08-12T11:30:02.000Z,3.90
2022-08-12T11:32:16.848Z,3.10
2022-08-12T11:34:51.968Z,3.63
2022-08-12T11:37:24.897Z,2.00
2022-08-12T11:42:39.862Z,5.65
2022-08-12T11:45:16.614Z,2.60
2022-08-12T11:47:44.686Z,3.95
2022-08-12T11:50:19.120Z,2.75
2022-08-12T11:53:02.371Z,4.90
2022-08-12T11:55:29.744Z,3.00
2022-08-12T11:59:14.614Z,2.50
2022-08-12T12:03:44.257Z,5.90
2022-08-12T12:06:16.925Z,3.92
2022-08-12T12:08:50.380Z,5.32
2022-08-12T12:11:18.476Z,2.88
2022-08-12T12:14:08.101Z,3.63
2022-08-12T12:16:33.531Z,4.70
2022-08-12T12:19:05.534Z,5.93
2022-08-12T12:21:46.939Z,4.13
2022-08-12T12:24:21.699Z,2.55
2022-08-12T12:27:00.706Z,3.63
2022-08-12T12:30:19.595Z,2.50
2022-08-12T12:32:18.647Z,3.47
2022-08-12T12:35:14.570Z,5.70
2022-08-12T12:38:04.251Z,4.23
2022-08-12T12:40:29.768Z,5.33
2022-08-12T12:43:00.453Z,3.90
2022-08-12T12:45:33.567Z,4.68
2022-08-12T12:48:04.919Z,4.13
2022-08-12T12:50:42.810Z,3.88
2022-08-12T12:54:08.229Z,2.97
2022-08-12T12:56:05.706Z,5.35
2022-08-12T12:58:34.660Z,2.08
2022-08-12T13:01:04.825Z,2.83
2022-08-12T13:03:54.097Z,2.78
2022-08-12T13:06:31.669Z,3.58
2022-08-12T13:09:03.807Z,7.07
2022-08-12T13:11:41.651Z,2.85
2022-08-12T13:14:27.871Z,3.85
2022-08-12T13:16:55.347Z,5.05
2022-08-12T13:19:36.039Z,4.10
2022-08-12T13:22:20.734Z,4.25
2022-08-12T13:24:54.943Z,2.72
2022-08-12T13:27:46.224Z,2.13
2022-08-12T13:30:20.419Z,3.80
2022-08-12T13:32:58.406Z,2.50
2022-08-12T13:35:33.217Z,2.50
2022-08-12T13:38:02.659Z,3.23
2022-08-12T13:40:32.421Z,2.63
2022-08-12T13:43:01.713Z,2.92
2022-08-12T13:45:30.968Z,6.50
2022-08-12T13:48:03.591Z,3.17
2022-08-12T13:50:41.269Z,2.13
2022-08-12T13:53:24.873Z,2.72
2022-08-12T13:55:59.456Z,3.97
2022-08-12T13:58:30.025Z,4.05
2022-08-12T14:00:58.068Z,4.22
2022-08-12T14:03:28.706Z,4.60
2022-08-12T14:06:15.181Z,4.18
2022-08-12T14:08:43.181Z,3.35
2022-08-12T14:11:12.433Z,4.45
2022-08-12T14:14:05.147Z,2.53
2022-08-12T14:16:38.228Z,5.05
2022-08-12T14:19:18.467Z,5.57
2022-08-12T14:21:59.672Z,1.90
2022-08-12T14:24:30.804Z,4.85
2022-08-12T14:27:01.906Z,2.97
2022-08-12T14:30:04.893Z,3.40
2022-08-12T14:32:17.679Z,4.60
2022-08-12T14:34:47.219Z,3.25
2022-08-12T14:37:57.113Z,2.22
2022-08-12T14:40:05.840Z,3.00
2022-08-12T14:42:34.654Z,2.65
2022-08-12T14:45:02.212Z,2.25
2022-08-12T14:47:34.957Z,2.78
2022-08-12T14:50:37.107Z,5.35
2022-08-12T14:58:31.766Z,3.35
2022-08-12T15:01:21.528Z,1.80
2022-08-12T15:04:01.582Z,1.63
2022-08-12T15:06:39.862Z,3.10
2022-08-12T15:09:29.235Z,4.50
2022-08-12T15:12:06.172Z,4.43
2022-08-12T15:14:42.892Z,1.83
2022-08-12T15:17:12.472Z,4.47
2022-08-12T15:20:31.033Z,1.75
2022-08-12T15:22:53.813Z,3.90
2022-08-12T15:25:21.077Z,2.88
2022-08-12T15:28:10.985Z,3.83
2022-08-12T15:30:43.788Z,2.90
2022-08-12T15:33:15.659Z,4.53
2022-08-12T15:35:51.915Z,2.78
2022-08-12T15:38:22.091Z,3.85
2022-08-12T15:40:54.801Z,1.73
2022-08-12T15:44:16.224Z,3.78
2022-08-12T15:46:15.086Z,2.20
2022-08-12T15:48:46.978Z,5.47
2022-08-12T15:51:58.982Z,3.72
2022-08-12T15:54:33.169Z,1.63
2022-08-12T15:57:07.579Z,1.98
2022-08-12T16:00:03.842Z,1.77
2022-08-12T16:02:52.482Z,1.55
2022-08-12T16:06:11.564Z,3.30
2022-08-12T16:08:17.208Z,2.63
2022-08-12T16:10:47.301Z,2.90
2022-08-12T16:13:32.315Z,3.57
2022-08-12T16:16:24.121Z,1.95
2022-08-12T16:20:01.740Z,1.63
2022-08-12T16:22:11.454Z,1.98
2022-08-12T16:24:43.670Z,5.53
2022-08-12T16:27:16.283Z,2.80
2022-08-12T16:29:52.694Z,2.23
2022-08-12T16:32:24.188Z,2.33
2022-08-12T16:34:56.013Z,6.13
2022-08-12T16:38:04.701Z,2.83
2022-08-12T16:40:13.027Z,4.00
2022-08-12T16:42:42.253Z,2.80
2022-08-12T16:46:07.804Z,1.60
2022-08-12T16:48:34.134Z,3.00
2022-08-12T16:51:09.207Z,2.55
2022-08-12T16:53:44.314Z,2.92
2022-08-12T16:56:14.979Z,2.53
2022-08-12T16:58:43.290Z,1.80
2022-08-12T17:01:14.460Z,3.80
2022-08-12T17:04:09.022Z,3.63
2022-08-12T17:06:41.510Z,3.00
2022-08-12T17:09:17.974Z,3.15
2022-08-12T17:11:48.954Z,3.53
2022-08-12T17:14:16.973Z,3.83
2022-08-12T17:16:45.610Z,4.43
2022-08-12T17:19:13.950Z,3.67
2022-08-12T17:22:01.543Z,8.25
2022-08-12T17:24:32.481Z,4.55
2022-08-12T17:27:14.451Z,5.57
2022-08-12T17:30:01.079Z,3.17
2022-08-12T17:32:33.611Z,4.45
2022-08-12T17:35:20.106Z,3.40
2022-08-12T17:37:48.545Z,6.50
2022-08-12T17:40:34.542Z,3.75
2022-08-12T17:43:55.786Z,3.30
2022-08-12T17:45:59.002Z,5.03
2022-08-12T17:48:35.216Z,3.38
2022-08-12T17:51:12.501Z,8.27
2022-08-12T17:54:11.004Z,5.63
2022-08-12T17:56:32.651Z,6.40
2022-08-12T17:59:01.133Z,6.80
2022-08-12T18:01:29.351Z,7.40
2022-08-12T18:04:21.470Z,6.80
2022-08-12T18:06:53.995Z,6.78
2022-08-12T18:09:24.556Z,11.90
2022-08-12T18:12:14.594Z,10.15
2022-08-12T18:14:56.421Z,7.07
2022-08-12T18:17:32.287Z,5.53
2022-08-12T18:20:27.152Z,4.95
2022-08-12T18:23:15.488Z,7.15
2022-08-12T18:26:15.204Z,5.78
2022-08-12T18:28:50.686Z,8.33
2022-08-12T18:31:44.777Z,5.65
2022-08-12T18:34:24.940Z,5.18
2022-08-12T18:37:24.285Z,6.35
2022-08-12T18:40:08.632Z,3.07
2022-08-12T18:42:36.249Z,5.17
2022-08-12T18:45:03.836Z,4.30
2022-08-12T18:47:50.109Z,5.27
2022-08-12T18:50:26.753Z,4.50
2022-08-12T18:54:05.169Z,4.25
2022-08-12T18:56:04.484Z,6.13
2022-08-12T18:58:36.604Z,4.20
2022-08-12T19:01:08.714Z,4.53
2022-08-12T19:04:01.747Z,2.90
2022-08-12T19:06:38.134Z,3.50
2022-08-12T19:09:11.436Z,5.30
2022-08-12T19:11:57.535Z,6.57
2022-08-12T19:14:28.112Z,4.45
2022-08-12T19:16:57.758Z,6.75
2022-08-12T19:19:24.794Z,3.92
2022-08-12T19:21:56.480Z,3.87
2022-08-12T19:24:42.317Z,3.53
2022-08-12T19:27:11.043Z,6.55
2022-08-12T19:29:44.118Z,6.03
2022-08-12T19:32:13.235Z,6.45
2022-08-12T19:36:06.471Z,8.05
2022-08-12T19:38:04.119Z,4.38
2022-08-12T19:40:32.327Z,5.70
2022-08-12T19:43:19.590Z,5.80
2022-08-12T19:45:56.783Z,4.57
2022-08-12T19:48:30.709Z,4.78
2022-08-12T19:51:09.335Z,4.85
2022-08-12T19:53:57.501Z,6.80
2022-08-12T19:56:28.056Z,9.80
2022-08-12T19:59:18.763Z,8.45
2022-08-12T20:02:03.281Z,6.07
2022-08-12T20:04:35.520Z,7.93
2022-08-12T20:07:06.574Z,10.53
2022-08-12T20:09:39.694Z,7.18
2022-08-12T20:12:12.226Z,4.25
2022-08-12T20:14:52.442Z,4.88
2022-08-12T20:17:23.636Z,8.45
2022-08-12T20:20:17.747Z,7.97
2022-08-12T20:22:43.003Z,4.70
2022-08-12T20:25:12.351Z,7.70
2022-08-12T20:28:04.885Z,7.38
2022-08-12T20:30:53.439Z,4.30
2022-08-12T20:33:50.279Z,5.63
2022-08-12T20:36:42.854Z,7.25
2022-08-12T20:39:34.104Z,5.60
2022-08-12T20:42:07.498Z,4.70
2022-08-12T20:44:40.787Z,5.13
2022-08-12T20:47:19.538Z,4.00
2022-08-12T20:49:54.923Z,4.85
2022-08-12T20:52:30.238Z,3.40
2022-08-12T20:55:00.361Z,6.40
2022-08-12T20:57:37.648Z,4.50
2022-08-12T21:00:15.328Z,4.65
2022-08-12T21:02:50.008Z,4.97
2022-08-12T21:06:09.315Z,9.93
2022-08-12T21:08:27.302Z,7.23
2022-08-12T21:10:58.909Z,6.10
2022-08-12T21:13:26.864Z,7.72
2022-08-12T21:15:58.978Z,6.17
2022-08-12T21:18:28.926Z,5.20
2022-08-12T21:20:58.850Z,8.30
2022-08-12T21:23:30.921Z,7.57
2022-08-12T21:26:16.252Z,8.27
2022-08-12T21:28:58.760Z,7.47
2022-08-12T21:32:39.570Z,6.35
2022-08-12T21:34:17.946Z,9.68
2022-08-12T21:36:49.453Z,9.88
2022-08-12T21:39:21.390Z,10.88
2022-08-12T21:41:56.185Z,5.97
2022-08-12T21:45:45.941Z,8.38
2022-08-12T21:47:21.179Z,6.03
2022-08-12T21:50:03.877Z,6.50
2022-08-12T21:52:41.884Z,10.07
2022-08-12T21:55:18.682Z,6.75
2022-08-12T21:57:54.701Z,5.18
2022-08-12T22:00:34.997Z,5.80
2022-08-12T22:04:03.143Z,7.22
2022-08-12T22:06:26.245Z,7.43
2022-08-12T22:09:02.722Z,5.78
2022-08-12T22:11:41.812Z,6.47
2022-08-12T22:14:18.000Z,6.03
2022-08-12T22:16:50.917Z,7.43
2022-08-12T22:19:19.505Z,7.93
2022-08-12T22:21:52.315Z,6.10
2022-08-12T22:24:26.510Z,5.83
2022-08-12T22:27:28.394Z,4.53
2022-08-12T22:30:16.528Z,6.60
2022-08-12T22:32:51.595Z,3.80
2022-08-12T22:35:47.634Z,6.45
2022-08-12T22:38:25.073Z,9.63
2022-08-12T22:41:03.958Z,7.03
2022-08-12T22:43:59.853Z,7.20
2022-08-12T22:46:53.981Z,14.13
2022-08-12T22:49:49.144Z,10.73
2022-08-12T22:52:23.051Z,10.23
2022-08-12T22:55:03.733Z,7.47
2022-08-12T22:57:49.357Z,8.00
2022-08-12T23:00:24.448Z,7.00
2022-08-12T23:02:58.448Z,5.88
2022-08-12T23:05:57.504Z,5.43
2022-08-12T23:08:17.756Z,4.32
2022-08-12T23:10:48.352Z,8.18
2022-08-12T23:13:43.407Z,9.35
2022-08-12T23:16:18.239Z,11.38
2022-08-12T23:19:01.419Z,13.93
2022-08-12T23:22:03.666Z,10.93
2022-08-12T23:24:26.048Z,9.00
2022-08-12T23:27:11.677Z,8.88
2022-08-12T23:29:43.968Z,15.77
2022-08-12T23:32:36.424Z,9.43
2022-08-12T23:35:18.875Z,10.50
2022-08-12T23:37:54.544Z,10.75
2022-08-12T23:40:24.528Z,7.68
2022-08-12T23:42:54.091Z,10.90
2022-08-12T23:45:32.060Z,7.95
2022-08-12T23:48:02.256Z,8.80
2022-08-12T23:50:33.808Z,5.65
2022-08-12T23:53:05.409Z,7.60
2022-08-12T23:55:40.797Z,8.57
2022-08-12T23:58:21.077Z,7.22
